sensor_id;sensor_type;location;lat;lon;timestamp;pressure;altitude;pressure_sealevel;temperature;humidity
61474;BME280;53694;49.784;30.150;2023-10-13T00:00:06;99523.44;;;15.30;60.51
61474;BME280;53694;49.784;30.150;2023-10-13T00:01:08;99517.91;;;15.30;60.52
61474;BME280;53694;49.784;30.150;2023-10-13T00:02:10;99517.91;;;15.30;60.63
61474;BME280;53694;49.784;30.150;2023-10-13T00:03:11;99519.48;;;15.31;60.68
61474;BME280;53694;49.784;30.150;2023-10-13T00:04:13;99522.66;;;15.30;60.82
61474;BME280;53694;49.784;30.150;2023-10-13T00:05:14;99526.20;;;15.30;60.84
61474;BME280;53694;49.784;30.150;2023-10-13T00:06:16;99517.91;;;15.30;60.85
61474;BME280;53694;49.784;30.150;2023-10-13T00:07:17;99523.44;;;15.30;60.91
61474;BME280;53694;49.784;30.150;2023-10-13T00:08:19;99530.55;;;15.31;60.96
61474;BME280;53694;49.784;30.150;2023-10-13T00:09:20;99530.14;;;15.29;61.00
61474;BME280;53694;49.784;30.150;2023-10-13T00:10:22;99537.65;;;15.29;61.10
61474;BME280;53694;49.784;30.150;2023-10-13T00:11:23;99532.91;;;15.29;61.15
61474;BME280;53694;49.784;30.150;2023-10-13T00:12:25;99540.41;;;15.29;61.15
61474;BME280;53694;49.784;30.150;2023-10-13T00:13:27;99534.09;;;15.28;61.26
61474;BME280;53694;49.784;30.150;2023-10-13T00:14:29;99539.62;;;15.28;61.41
61474;BME280;53694;49.784;30.150;2023-10-13T00:15:31;99535.29;;;15.27;61.61
61474;BME280;53694;49.784;30.150;2023-10-13T00:16:33;99532.52;;;15.27;62.03
61474;BME280;53694;49.784;30.150;2023-10-13T00:17:34;99523.44;;;15.27;62.84
61474;BME280;53694;49.784;30.150;2023-10-13T00:18:36;99517.48;;;15.24;63.40
61474;BME280;53694;49.784;30.150;2023-10-13T00:19:38;99526.20;;;15.23;63.89
61474;BME280;53694;49.784;30.150;2023-10-13T00:20:41;99535.69;;;15.22;64.91
61474;BME280;53694;49.784;30.150;2023-10-13T00:21:43;99540.44;;;15.21;65.23
61474;BME280;53694;49.784;30.150;2023-10-13T00:22:44;99540.42;;;15.18;66.21
61474;BME280;53694;49.784;30.150;2023-10-13T00:23:46;99545.17;;;15.14;67.14
61474;BME280;53694;49.784;30.150;2023-10-13T00:24:48;99541.61;;;15.10;67.72
61474;BME280;53694;49.784;30.150;2023-10-13T00:25:49;99545.93;;;15.04;68.11
61474;BME280;53694;49.784;30.150;2023-10-13T00:26:51;99549.09;;;14.98;68.80
61474;BME280;53694;49.784;30.150;2023-10-13T00:27:52;99545.14;;;14.92;69.13
61474;BME280;53694;49.784;30.150;2023-10-13T00:28:59;99549.08;;;14.84;69.39
61474;BME280;53694;49.784;30.150;2023-10-13T00:30:04;99554.98;;;14.75;69.62
61474;BME280;53694;49.784;30.150;2023-10-13T00:31:06;99546.64;;;14.65;70.16
61474;BME280;53694;49.784;30.150;2023-10-13T00:32:07;99543.86;;;14.54;70.74
61474;BME280;53694;49.784;30.150;2023-10-13T00:33:09;99545.39;;;14.44;71.25
61474;BME280;53694;49.784;30.150;2023-10-13T00:34:11;99552.86;;;14.44;71.79
61474;BME280;53694;49.784;30.150;2023-10-13T00:35:13;99547.80;;;14.57;71.76
61474;BME280;53694;49.784;30.150;2023-10-13T00:36:16;99543.94;;;14.79;71.55
61474;BME280;53694;49.784;30.150;2023-10-13T00:37:18;99549.91;;;15.10;70.93
61474;BME280;53694;49.784;30.150;2023-10-13T00:38:19;99535.69;;;15.50;70.20
61474;BME280;53694;49.784;30.150;2023-10-13T00:39:21;99535.61;;;15.97;69.16
61474;BME280;53694;49.784;30.150;2023-10-13T00:40:24;99542.58;;;16.44;67.91
61474;BME280;53694;49.784;30.150;2023-10-13T00:41:26;99537.59;;;16.91;66.12
61474;BME280;53694;49.784;30.150;2023-10-13T00:42:27;99538.89;;;17.28;64.81
61474;BME280;53694;49.784;30.150;2023-10-13T00:43:29;99545.13;;;17.43;63.84
61474;BME280;53694;49.784;30.150;2023-10-13T00:44:30;99549.11;;;17.42;63.43
61474;BME280;53694;49.784;30.150;2023-10-13T00:45:33;99550.76;;;17.32;63.42
61474;BME280;53694;49.784;30.150;2023-10-13T00:46:36;99556.47;;;17.11;63.63
61474;BME280;53694;49.784;30.150;2023-10-13T00:47:39;99555.05;;;16.88;64.44
61474;BME280;53694;49.784;30.150;2023-10-13T00:48:42;99551.59;;;16.63;65.23
61474;BME280;53694;49.784;30.150;2023-10-13T00:49:45;99553.69;;;16.37;66.20
61474;BME280;53694;49.784;30.150;2023-10-13T00:50:46;99564.07;;;16.12;67.11
61474;BME280;53694;49.784;30.150;2023-10-13T00:51:49;99559.78;;;15.89;67.91
61474;BME280;53694;49.784;30.150;2023-10-13T00:52:51;99562.97;;;15.70;68.81
61474;BME280;53694;49.784;30.150;2023-10-13T00:53:53;99560.97;;;15.53;69.90
61474;BME280;53694;49.784;30.150;2023-10-13T00:54:54;99554.66;;;15.34;70.62
61474;BME280;53694;49.784;30.150;2023-10-13T00:55:56;99566.52;;;15.17;71.49
61474;BME280;53694;49.784;30.150;2023-10-13T00:56:58;99576.75;;;15.02;72.23
61474;BME280;53694;49.784;30.150;2023-10-13T00:57:59;99571.21;;;14.98;72.91
61474;BME280;53694;49.784;30.150;2023-10-13T00:59:01;99565.72;;;15.13;73.20
61474;BME280;53694;49.784;30.150;2023-10-13T01:00:03;99565.71;;;15.41;73.02
61474;BME280;53694;49.784;30.150;2023-10-13T01:01:05;99569.29;;;15.81;72.49
61474;BME280;53694;49.784;30.150;2023-10-13T01:02:07;99574.32;;;16.22;71.56
61474;BME280;53694;49.784;30.150;2023-10-13T01:03:08;99567.87;;;16.57;70.34
61474;BME280;53694;49.784;30.150;2023-10-13T01:04:12;99569.27;;;16.94;69.11
61474;BME280;53694;49.784;30.150;2023-10-13T01:05:14;99558.72;;;17.30;67.64
61474;BME280;53694;49.784;30.150;2023-10-13T01:06:19;99559.25;;;17.63;66.68
61474;BME280;53694;49.784;30.150;2023-10-13T01:07:20;99553.52;;;17.84;65.92
61474;BME280;53694;49.784;30.150;2023-10-13T01:08:32;99555.45;;;17.87;65.40
61474;BME280;53694;49.784;30.150;2023-10-13T01:09:40;99550.02;;;17.77;65.39
61474;BME280;53694;49.784;30.150;2023-10-13T01:10:39;99554.56;;;17.53;65.59
61474;BME280;53694;49.784;30.150;2023-10-13T01:11:41;99555.97;;;17.27;66.22
61474;BME280;53694;49.784;30.150;2023-10-13T01:12:43;99548.63;;;16.98;66.93
61474;BME280;53694;49.784;30.150;2023-10-13T01:13:45;99551.95;;;16.68;67.90
61474;BME280;53694;49.784;30.150;2023-10-13T01:14:47;99544.95;;;16.42;68.65
61474;BME280;53694;49.784;30.150;2023-10-13T01:15:49;99560.88;;;16.17;69.54
61474;BME280;53694;49.784;30.150;2023-10-13T01:16:51;99564.50;;;15.92;70.82
61474;BME280;53694;49.784;30.150;2023-10-13T01:17:52;99561.39;;;15.69;71.61
61474;BME280;53694;49.784;30.150;2023-10-13T01:18:53;99561.77;;;15.49;72.42
61474;BME280;53694;49.784;30.150;2023-10-13T01:19:55;99557.03;;;15.39;73.11
61474;BME280;53694;49.784;30.150;2023-10-13T01:20:57;99553.86;;;15.44;73.69
61474;BME280;53694;49.784;30.150;2023-10-13T01:21:58;99559.78;;;15.61;73.77
61474;BME280;53694;49.784;30.150;2023-10-13T01:23:03;99572.06;;;15.81;73.66
61474;BME280;53694;49.784;30.150;2023-10-13T01:24:03;99557.75;;;16.08;73.32
61474;BME280;53694;49.784;30.150;2023-10-13T01:25:05;99565.97;;;16.36;72.60
61474;BME280;53694;49.784;30.150;2023-10-13T01:26:07;99563.87;;;16.65;71.91
61474;BME280;53694;49.784;30.150;2023-10-13T01:27:08;99564.50;;;16.94;70.81
61474;BME280;53694;49.784;30.150;2023-10-13T01:28:10;99554.84;;;17.20;69.55
61474;BME280;53694;49.784;30.150;2023-10-13T01:29:12;99557.76;;;17.51;68.69
61474;BME280;53694;49.784;30.150;2023-10-13T01:30:14;99557.47;;;17.83;67.89
61474;BME280;53694;49.784;30.150;2023-10-13T01:31:15;99554.07;;;18.06;66.69
61474;BME280;53694;49.784;30.150;2023-10-13T01:32:18;99550.05;;;18.11;66.01
61474;BME280;53694;49.784;30.150;2023-10-13T01:33:20;99554.92;;;17.99;66.00
61474;BME280;53694;49.784;30.150;2023-10-13T01:34:22;99560.70;;;17.78;66.29
61474;BME280;53694;49.784;30.150;2023-10-13T01:35:23;99561.31;;;17.52;66.97
61474;BME280;53694;49.784;30.150;2023-10-13T01:36:28;99563.11;;;17.24;67.72
61474;BME280;53694;49.784;30.150;2023-10-13T01:37:29;99576.43;;;16.91;68.74
61474;BME280;53694;49.784;30.150;2023-10-13T01:38:31;99577.34;;;16.60;70.10
61474;BME280;53694;49.784;30.150;2023-10-13T01:39:32;99578.34;;;16.31;71.21
61474;BME280;53694;49.784;30.150;2023-10-13T01:40:35;99578.34;;;16.03;71.91
61474;BME280;53694;49.784;30.150;2023-10-13T01:41:37;99582.31;;;15.84;73.27
61474;BME280;53694;49.784;30.150;2023-10-13T01:42:39;99590.25;;;15.82;74.01
61474;BME280;53694;49.784;30.150;2023-10-13T01:43:40;99600.50;;;15.92;74.25
61474;BME280;53694;49.784;30.150;2023-10-13T01:44:42;99598.89;;;16.09;74.09
61474;BME280;53694;49.784;30.150;2023-10-13T01:45:43;99602.02;;;16.29;73.69
61474;BME280;53694;49.784;30.150;2023-10-13T01:46:45;99592.42;;;16.52;73.29
61474;BME280;53694;49.784;30.150;2023-10-13T01:47:47;99594.73;;;16.71;72.59
61474;BME280;53694;49.784;30.150;2023-10-13T01:48:48;99593.08;;;16.91;71.88
61474;BME280;53694;49.784;30.150;2023-10-13T01:49:50;99585.79;;;17.12;71.41
61474;BME280;53694;49.784;30.150;2023-10-13T01:50:56;99586.05;;;17.32;70.76
61474;BME280;53694;49.784;30.150;2023-10-13T01:51:56;99588.66;;;17.53;69.95
61474;BME280;53694;49.784;30.150;2023-10-13T01:52:58;99582.95;;;17.71;69.15
61474;BME280;53694;49.784;30.150;2023-10-13T01:54:00;99588.45;;;17.82;68.50
61474;BME280;53694;49.784;30.150;2023-10-13T01:55:01;99589.98;;;17.86;68.20
61474;BME280;53694;49.784;30.150;2023-10-13T01:56:04;99589.69;;;17.77;68.35
61474;BME280;53694;49.784;30.150;2023-10-13T01:57:07;99595.76;;;17.58;68.64
61474;BME280;53694;49.784;30.150;2023-10-13T01:58:13;99601.55;;;17.29;69.46
61474;BME280;53694;49.784;30.150;2023-10-13T01:59:15;99596.98;;;16.97;70.48
61474;BME280;53694;49.784;30.150;2023-10-13T02:00:16;99596.73;;;16.63;71.72
61474;BME280;53694;49.784;30.150;2023-10-13T02:01:18;99593.30;;;16.31;72.95
61474;BME280;53694;49.784;30.150;2023-10-13T02:02:19;99594.17;;;16.06;74.19
61474;BME280;53694;49.784;30.150;2023-10-13T02:03:21;99602.48;;;15.95;74.99
61474;BME280;53694;49.784;30.150;2023-10-13T02:04:22;99596.16;;;15.98;75.38
61474;BME280;53694;49.784;30.150;2023-10-13T02:05:24;99598.10;;;16.12;75.43
61474;BME280;53694;49.784;30.150;2023-10-13T02:06:26;99599.23;;;16.33;75.15
61474;BME280;53694;49.784;30.150;2023-10-13T02:07:27;99598.75;;;16.56;74.39
61474;BME280;53694;49.784;30.150;2023-10-13T02:08:29;99605.05;;;16.74;73.58
61474;BME280;53694;49.784;30.150;2023-10-13T02:09:30;99592.23;;;16.94;73.00
61474;BME280;53694;49.784;30.150;2023-10-13T02:10:32;99590.55;;;17.11;72.06
61474;BME280;53694;49.784;30.150;2023-10-13T02:11:33;99604.73;;;17.24;71.46
61474;BME280;53694;49.784;30.150;2023-10-13T02:12:35;99599.11;;;17.38;71.15
61474;BME280;53694;49.784;30.150;2023-10-13T02:13:36;99614.44;;;17.54;70.85
61474;BME280;53694;49.784;30.150;2023-10-13T02:14:37;99608.39;;;17.66;70.13
61474;BME280;53694;49.784;30.150;2023-10-13T02:15:39;99618.66;;;17.76;69.83
61474;BME280;53694;49.784;30.150;2023-10-13T02:16:41;99617.34;;;17.88;69.72
61474;BME280;53694;49.784;30.150;2023-10-13T02:17:42;99611.31;;;17.96;69.05
61474;BME280;53694;49.784;30.150;2023-10-13T02:18:44;99615.30;;;17.95;68.78
61474;BME280;53694;49.784;30.150;2023-10-13T02:19:45;99620.19;;;17.84;68.94
61474;BME280;53694;49.784;30.150;2023-10-13T02:20:47;99631.05;;;17.61;69.45
61474;BME280;53694;49.784;30.150;2023-10-13T02:21:48;99624.55;;;17.30;70.57
61474;BME280;53694;49.784;30.150;2023-10-13T02:22:50;99633.06;;;16.94;71.76
61474;BME280;53694;49.784;30.150;2023-10-13T02:23:51;99624.47;;;16.60;73.08
61474;BME280;53694;49.784;30.150;2023-10-13T02:24:53;99627.33;;;16.35;74.37
61474;BME280;53694;49.784;30.150;2023-10-13T02:25:55;99619.06;;;16.20;75.40
61474;BME280;53694;49.784;30.150;2023-10-13T02:26:57;99624.98;;;16.26;76.11
61474;BME280;53694;49.784;30.150;2023-10-13T02:27:58;99624.98;;;16.26;76.11
61474;BME280;53694;49.784;30.150;2023-10-13T02:29:01;99618.63;;;16.36;76.22
61474;BME280;53694;49.784;30.150;2023-10-13T02:30:03;99630.86;;;16.49;75.94
61474;BME280;53694;49.784;30.150;2023-10-13T02:31:05;99622.88;;;16.66;75.67
61474;BME280;53694;49.784;30.150;2023-10-13T02:32:08;99627.58;;;16.83;75.17
61474;BME280;53694;49.784;30.150;2023-10-13T02:33:09;99624.62;;;17.15;74.48
61474;BME280;53694;49.784;30.150;2023-10-13T02:34:11;99624.62;;;17.15;74.48
61474;BME280;53694;49.784;30.150;2023-10-13T02:35:12;99628.48;;;17.32;73.90
61474;BME280;53694;49.784;30.150;2023-10-13T02:36:14;99625.20;;;17.48;73.41
61474;BME280;53694;49.784;30.150;2023-10-13T02:37:16;99622.72;;;17.61;72.45
61474;BME280;53694;49.784;30.150;2023-10-13T02:38:17;99627.78;;;17.73;72.05
61474;BME280;53694;49.784;30.150;2023-10-13T02:39:19;99624.14;;;17.83;71.79
61474;BME280;53694;49.784;30.150;2023-10-13T02:40:20;99631.20;;;17.91;71.30
61474;BME280;53694;49.784;30.150;2023-10-13T02:41:22;99618.34;;;18.08;70.79
61474;BME280;53694;49.784;30.150;2023-10-13T02:42:23;99618.34;;;18.08;70.79
61474;BME280;53694;49.784;30.150;2023-10-13T02:43:25;99618.31;;;18.12;70.38
61474;BME280;53694;49.784;30.150;2023-10-13T02:44:26;99624.20;;;18.17;70.24
61474;BME280;53694;49.784;30.150;2023-10-13T02:45:28;99628.94;;;18.20;70.06
61474;BME280;53694;49.784;30.150;2023-10-13T02:46:29;99630.94;;;18.20;69.87
61474;BME280;53694;49.784;30.150;2023-10-13T02:47:31;99633.30;;;18.21;70.05
61474;BME280;53694;49.784;30.150;2023-10-13T02:48:32;99629.34;;;18.22;69.85
61474;BME280;53694;49.784;30.150;2023-10-13T02:49:34;99627.73;;;18.21;70.05
61474;BME280;53694;49.784;30.150;2023-10-13T02:50:35;99627.05;;;18.14;70.21
61474;BME280;53694;49.784;30.150;2023-10-13T02:51:37;99623.94;;;18.05;70.42
61474;BME280;53694;49.784;30.150;2023-10-13T02:52:39;99630.81;;;17.93;70.69
61474;BME280;53694;49.784;30.150;2023-10-13T02:53:44;99632.50;;;17.80;71.13
61474;BME280;53694;49.784;30.150;2023-10-13T02:54:46;99628.20;;;17.71;71.56
61474;BME280;53694;49.784;30.150;2023-10-13T02:55:52;99637.31;;;17.72;71.82
61474;BME280;53694;49.784;30.150;2023-10-13T02:56:54;99620.66;;;17.72;71.84
61474;BME280;53694;49.784;30.150;2023-10-13T02:57:55;99631.34;;;17.77;71.96
61474;BME280;53694;49.784;30.150;2023-10-13T02:58:56;99626.13;;;17.83;72.02
61474;BME280;53694;49.784;30.150;2023-10-13T02:59:58;99629.27;;;17.88;71.62
61474;BME280;53694;49.784;30.150;2023-10-13T03:00:59;99627.62;;;17.94;71.65
61474;BME280;53694;49.784;30.150;2023-10-13T03:02:02;99625.56;;;18.02;71.38
61474;BME280;53694;49.784;30.150;2023-10-13T03:03:03;99627.11;;;18.07;71.20
61474;BME280;53694;49.784;30.150;2023-10-13T03:04:05;99623.09;;;18.11;70.85
61474;BME280;53694;49.784;30.150;2023-10-13T03:05:07;99624.98;;;18.18;70.64
61474;BME280;53694;49.784;30.150;2023-10-13T03:06:09;99625.74;;;18.22;70.45
61474;BME280;53694;49.784;30.150;2023-10-13T03:07:11;99624.53;;;18.27;70.54
61474;BME280;53694;49.784;30.150;2023-10-13T03:08:12;99616.52;;;18.32;70.20
61474;BME280;53694;49.784;30.150;2023-10-13T03:09:14;99620.41;;;18.38;69.98
61474;BME280;53694;49.784;30.150;2023-10-13T03:10:16;99618.77;;;18.44;69.76
61474;BME280;53694;49.784;30.150;2023-10-13T03:11:17;99616.31;;;18.50;69.50
61474;BME280;53694;49.784;30.150;2023-10-13T03:12:19;99617.91;;;18.47;69.43
61474;BME280;53694;49.784;30.150;2023-10-13T03:13:21;99625.08;;;18.11;70.02
61474;BME280;53694;49.784;30.150;2023-10-13T03:14:23;99625.08;;;18.11;70.02
61474;BME280;53694;49.784;30.150;2023-10-13T03:15:24;99619.81;;;17.79;71.06
61474;BME280;53694;49.784;30.150;2023-10-13T03:16:26;99626.75;;;17.53;72.11
61474;BME280;53694;49.784;30.150;2023-10-13T03:17:27;99625.67;;;17.36;72.89
61474;BME280;53694;49.784;30.150;2023-10-13T03:18:29;99634.44;;;17.31;73.27
61474;BME280;53694;49.784;30.150;2023-10-13T03:19:30;99631.65;;;17.34;73.65
61474;BME280;53694;49.784;30.150;2023-10-13T03:20:32;99631.58;;;17.41;73.57
61474;BME280;53694;49.784;30.150;2023-10-13T03:21:33;99629.94;;;17.51;73.42
61474;BME280;53694;49.784;30.150;2023-10-13T03:22:35;99627.46;;;17.64;73.13
61474;BME280;53694;49.784;30.150;2023-10-13T03:23:36;99627.39;;;17.74;72.82
61474;BME280;53694;49.784;30.150;2023-10-13T03:24:39;99625.68;;;17.88;72.53
61474;BME280;53694;49.784;30.150;2023-10-13T03:25:40;99606.51;;;18.01;72.20
61474;BME280;53694;49.784;30.150;2023-10-13T03:26:42;99627.05;;;18.14;72.08
61474;BME280;53694;49.784;30.150;2023-10-13T03:27:43;99626.10;;;18.28;71.53
61474;BME280;53694;49.784;30.150;2023-10-13T03:28:45;99625.14;;;18.41;70.90
61474;BME280;53694;49.784;30.150;2023-10-13T03:29:46;99623.40;;;18.55;70.43
61474;BME280;53694;49.784;30.150;2023-10-13T03:30:48;99624.86;;;18.66;70.04
61474;BME280;53694;49.784;30.150;2023-10-13T03:31:49;99623.20;;;18.72;69.02
61474;BME280;53694;49.784;30.150;2023-10-13T03:32:51;99620.03;;;18.74;68.75
61474;BME280;53694;49.784;30.150;2023-10-13T03:33:52;99627.13;;;18.79;68.64
61474;BME280;53694;49.784;30.150;2023-10-13T03:34:54;99623.99;;;18.73;68.35
61474;BME280;53694;49.784;30.150;2023-10-13T03:35:55;99631.74;;;18.55;68.64
61474;BME280;53694;49.784;30.150;2023-10-13T03:36:57;99625.67;;;18.29;69.64
61474;BME280;53694;49.784;30.150;2023-10-13T03:37:58;99627.95;;;18.00;70.34
61474;BME280;53694;49.784;30.150;2023-10-13T03:39:00;99627.83;;;17.66;71.36
61474;BME280;53694;49.784;30.150;2023-10-13T03:40:03;99638.00;;;17.31;72.58
61474;BME280;53694;49.784;30.150;2023-10-13T03:41:04;99635.02;;;17.01;73.83
61474;BME280;53694;49.784;30.150;2023-10-13T03:42:06;99627.16;;;16.88;74.86
61474;BME280;53694;49.784;30.150;2023-10-13T03:43:07;99631.13;;;16.87;75.30
61474;BME280;53694;49.784;30.150;2023-10-13T03:44:09;99635.83;;;16.97;75.47
61474;BME280;53694;49.784;30.150;2023-10-13T03:45:10;99628.61;;;17.11;75.26
61474;BME280;53694;49.784;30.150;2023-10-13T03:46:13;99634.86;;;17.29;75.07
61474;BME280;53694;49.784;30.150;2023-10-13T03:47:14;99633.11;;;17.49;74.11
61474;BME280;53694;49.784;30.150;2023-10-13T03:48:17;99631.45;;;17.63;73.33
61474;BME280;53694;49.784;30.150;2023-10-13T03:49:18;99634.55;;;17.76;72.97
61474;BME280;53694;49.784;30.150;2023-10-13T03:50:20;99639.18;;;17.89;72.54
61474;BME280;53694;49.784;30.150;2023-10-13T03:51:22;99639.85;;;18.01;72.08
61474;BME280;53694;49.784;30.150;2023-10-13T03:52:23;99643.33;;;18.12;71.98
61474;BME280;53694;49.784;30.150;2023-10-13T03:53:24;99641.99;;;18.27;71.54
61474;BME280;53694;49.784;30.150;2023-10-13T03:54:26;99635.91;;;18.39;70.75
61474;BME280;53694;49.784;30.150;2023-10-13T03:55:27;99636.55;;;18.51;69.99
61474;BME280;53694;49.784;30.150;2023-10-13T03:56:29;99634.48;;;18.58;69.52
61474;BME280;53694;49.784;30.150;2023-10-13T03:57:31;99634.45;;;18.62;68.92
61474;BME280;53694;49.784;30.150;2023-10-13T03:58:32;99641.62;;;18.59;69.39
61474;BME280;53694;49.784;30.150;2023-10-13T03:59:35;99634.59;;;18.47;69.48
61474;BME280;53694;49.784;30.150;2023-10-13T04:00:36;99641.99;;;18.27;69.80
61474;BME280;53694;49.784;30.150;2023-10-13T04:01:38;99645.05;;;17.98;70.54
61474;BME280;53694;49.784;30.150;2023-10-13T04:02:40;99643.69;;;17.69;71.52
61474;BME280;53694;49.784;30.150;2023-10-13T04:03:41;99650.24;;;17.37;72.60
61474;BME280;53694;49.784;30.150;2023-10-13T04:04:43;99643.25;;;17.15;73.59
61474;BME280;53694;49.784;30.150;2023-10-13T04:05:45;99649.25;;;17.06;74.34
61474;BME280;53694;49.784;30.150;2023-10-13T04:06:46;99650.42;;;17.12;74.75
61474;BME280;53694;49.784;30.150;2023-10-13T04:07:48;99644.80;;;17.23;74.51
61474;BME280;53694;49.784;30.150;2023-10-13T04:08:49;99647.47;;;17.37;74.21
61474;BME280;53694;49.784;30.150;2023-10-13T04:09:50;99648.96;;;17.53;73.98
61474;BME280;53694;49.784;30.150;2023-10-13T04:10:53;99646.46;;;17.69;73.26
61474;BME280;53694;49.784;30.150;2023-10-13T04:12:03;99640.02;;;17.83;72.74
61474;BME280;53694;49.784;30.150;2023-10-13T04:13:05;99648.64;;;17.95;72.45
61474;BME280;53694;49.784;30.150;2023-10-13T04:14:06;99646.11;;;18.12;72.28
61474;BME280;53694;49.784;30.150;2023-10-13T04:15:09;99644.38;;;18.25;71.62
61474;BME280;53694;49.784;30.150;2023-10-13T04:16:11;99650.59;;;18.40;71.16
61474;BME280;53694;49.784;30.150;2023-10-13T04:17:13;99651.25;;;18.51;70.33
61474;BME280;53694;49.784;30.150;2023-10-13T04:18:14;99647.97;;;18.60;69.90
61474;BME280;53694;49.784;30.150;2023-10-13T04:19:15;99653.03;;;18.68;69.84
61474;BME280;53694;49.784;30.150;2023-10-13T04:20:17;99658.19;;;18.73;68.83
61474;BME280;53694;49.784;30.150;2023-10-13T04:21:19;99660.59;;;18.68;68.84
61474;BME280;53694;49.784;30.150;2023-10-13T04:22:20;99656.77;;;18.55;69.44
61474;BME280;53694;49.784;30.150;2023-10-13T04:23:21;99656.19;;;18.36;69.95
61474;BME280;53694;49.784;30.150;2023-10-13T04:24:23;99667.55;;;18.11;70.34
61474;BME280;53694;49.784;30.150;2023-10-13T04:25:26;99666.20;;;17.85;71.06
61474;BME280;53694;49.784;30.150;2023-10-13T04:26:28;99666.38;;;17.57;71.85
61474;BME280;53694;49.784;30.150;2023-10-13T04:27:30;99666.16;;;17.33;72.77
61474;BME280;53694;49.784;30.150;2023-10-13T04:28:31;99668.20;;;17.22;73.64
61474;BME280;53694;49.784;30.150;2023-10-13T04:29:33;99669.78;;;17.19;74.13
61474;BME280;53694;49.784;30.150;2023-10-13T04:30:36;99672.90;;;17.29;74.26
61474;BME280;53694;49.784;30.150;2023-10-13T04:31:38;99676.00;;;17.41;74.34
61474;BME280;53694;49.784;30.150;2023-10-13T04:32:39;99675.11;;;17.59;73.90
61474;BME280;53694;49.784;30.150;2023-10-13T04:33:40;99665.88;;;17.76;73.34
61474;BME280;53694;49.784;30.150;2023-10-13T04:34:42;99669.32;;;17.91;72.87
61474;BME280;53694;49.784;30.150;2023-10-13T04:35:43;99667.58;;;18.08;72.46
61474;BME280;53694;49.784;30.150;2023-10-13T04:36:45;99665.83;;;18.24;72.14
61474;BME280;53694;49.784;30.150;2023-10-13T04:37:46;99672.05;;;18.39;71.45
61474;BME280;53694;49.784;30.150;2023-10-13T04:38:49;99679.80;;;18.55;70.70
61474;BME280;53694;49.784;30.150;2023-10-13T04:39:51;99681.27;;;18.67;70.09
61474;BME280;53694;49.784;30.150;2023-10-13T04:40:52;99684.30;;;18.83;69.03
61474;BME280;53694;49.784;30.150;2023-10-13T04:41:54;99684.30;;;18.83;69.03
61474;BME280;53694;49.784;30.150;2023-10-13T04:42:56;99676.69;;;18.87;68.84
61474;BME280;53694;49.784;30.150;2023-10-13T04:43:58;99678.69;;;18.87;68.55
61474;BME280;53694;49.784;30.150;2023-10-13T04:44:59;99681.23;;;18.74;68.64
61474;BME280;53694;49.784;30.150;2023-10-13T04:46:01;99686.58;;;18.54;69.05
61474;BME280;53694;49.784;30.150;2023-10-13T04:47:03;99685.71;;;18.23;69.58
61474;BME280;53694;49.784;30.150;2023-10-13T04:48:05;99690.39;;;17.88;70.45
61474;BME280;53694;49.784;30.150;2023-10-13T04:49:06;99698.92;;;17.56;71.49
61474;BME280;53694;49.784;30.150;2023-10-13T04:50:08;99688.77;;;17.28;72.56
61474;BME280;53694;49.784;30.150;2023-10-13T04:51:10;99706.73;;;17.06;73.49
61474;BME280;53694;49.784;30.150;2023-10-13T04:52:11;99698.05;;;16.96;74.14
61474;BME280;53694;49.784;30.150;2023-10-13T04:53:14;99703.19;;;16.98;74.58
61474;BME280;53694;49.784;30.150;2023-10-13T04:54:16;99710.28;;;17.10;74.65
61474;BME280;53694;49.784;30.150;2023-10-13T04:55:17;99712.59;;;17.26;74.30
61474;BME280;53694;49.784;30.150;2023-10-13T04:56:19;99708.13;;;17.42;74.21
61474;BME280;53694;49.784;30.150;2023-10-13T04:57:22;99714.75;;;17.63;73.85
61474;BME280;53694;49.784;30.150;2023-10-13T04:58:24;99720.58;;;17.83;73.32
61474;BME280;53694;49.784;30.150;2023-10-13T04:59:26;99717.27;;;18.02;72.40
61474;BME280;53694;49.784;30.150;2023-10-13T05:00:28;99714.74;;;18.18;71.62
61474;BME280;53694;49.784;30.150;2023-10-13T05:01:29;99713.81;;;18.32;70.97
61474;BME280;53694;49.784;30.150;2023-10-13T05:02:31;99714.88;;;18.45;70.66
61474;BME280;53694;49.784;30.150;2023-10-13T05:03:32;99714.72;;;18.60;70.31
61474;BME280;53694;49.784;30.150;2023-10-13T05:04:34;99712.22;;;18.72;69.70
61474;BME280;53694;49.784;30.150;2023-10-13T05:05:35;99712.11;;;18.83;69.02
61474;BME280;53694;49.784;30.150;2023-10-13T05:06:37;99725.09;;;18.93;68.47
61474;BME280;53694;49.784;30.150;2023-10-13T05:07:39;99720.78;;;18.89;68.11
61474;BME280;53694;49.784;30.150;2023-10-13T05:08:40;99748.61;;;18.89;68.11
61474;BME280;53694;49.784;30.150;2023-10-13T05:09:42;99716.22;;;18.68;68.44
61474;BME280;53694;49.784;30.150;2023-10-13T05:10:43;99718.11;;;18.40;68.81
61474;BME280;53694;49.784;30.150;2023-10-13T05:11:45;99719.15;;;18.12;69.49
61474;BME280;53694;49.784;30.150;2023-10-13T05:12:46;99729.67;;;17.87;70.38
61474;BME280;53694;49.784;30.150;2023-10-13T05:13:48;99725.05;;;17.62;71.12
61474;BME280;53694;49.784;30.150;2023-10-13T05:14:49;99729.95;;;17.37;72.05
61474;BME280;53694;49.784;30.150;2023-10-13T05:15:51;99726.91;;;17.17;72.90
61474;BME280;53694;49.784;30.150;2023-10-13T05:16:52;99729.70;;;17.10;73.46
61474;BME280;53694;49.784;30.150;2023-10-13T05:17:54;99726.52;;;17.11;73.72
61474;BME280;53694;49.784;30.150;2023-10-13T05:18:55;99734.80;;;17.22;73.91
61474;BME280;53694;49.784;30.150;2023-10-13T05:19:58;99732.34;;;17.38;73.59
61474;BME280;53694;49.784;30.150;2023-10-13T05:20:59;99735.43;;;17.55;73.49
61474;BME280;53694;49.784;30.150;2023-10-13T05:22:00;99737.31;;;17.76;73.08
61474;BME280;53694;49.784;30.150;2023-10-13T05:23:02;99740.30;;;17.99;72.37